createdAt,value
2022-10-17T00:04:15.280Z,13
2022-10-17T00:24:19.484Z,12.8
2022-10-17T00:34:21.622Z,12.8
2022-10-17T00:44:23.349Z,12.9
2022-10-17T00:54:25.639Z,12.8
2022-10-17T01:04:27.857Z,12.8
2022-10-17T03:04:55.616Z,12.9
2022-10-17T03:55:06.137Z,12.3
2022-10-17T04:25:12.784Z,12.3
2022-10-17T05:25:24.828Z,12.4
2022-10-17T05:45:28.530Z,12.4
2022-10-17T06:05:32.984Z,12.7
2022-10-17T06:15:35.312Z,12.7
2022-10-17T06:18:29.833Z,12.7
2022-10-17T06:45:51.372Z,13.5
2022-10-17T06:55:53.978Z,13.8
2022-10-17T07:05:56.637Z,14.4
2022-10-17T07:56:07.982Z,16.7
2022-10-17T08:16:11.851Z,17.7
2022-10-17T08:26:14.501Z,18.1
2022-10-17T08:36:16.333Z,18.4
2022-10-17T08:46:18.548Z,18.7
2022-10-17T08:56:24.973Z,19
2022-10-17T09:06:22.812Z,19.4
2022-10-17T09:26:26.628Z,19.8
2022-10-17T09:36:29.303Z,20
2022-10-17T09:56:34.156Z,20.3
2022-10-17T10:06:35.919Z,20.4
2022-10-17T10:16:38.336Z,20.3
2022-10-17T10:26:40.023Z,20.3
2022-10-17T10:36:42.308Z,20.3
2022-10-17T10:46:44.323Z,20.1
2022-10-17T11:06:47.905Z,20.3
2022-10-17T11:16:49.635Z,20.5
2022-10-17T11:26:51.546Z,20.4
2022-10-17T11:36:53.878Z,20.2
2022-10-17T11:46:55.581Z,20.2
2022-10-17T11:56:58.087Z,20
2022-10-17T12:07:00.369Z,19.9
2022-10-17T12:17:02.917Z,20.1
2022-10-17T12:37:06.418Z,20.1
2022-10-17T12:57:11.140Z,19.8
2022-10-17T14:17:29.847Z,18.8
2022-10-17T14:47:43.439Z,19.1
2022-10-17T15:27:45.622Z,19.1
2022-10-17T15:37:47.360Z,18.9
2022-10-17T15:47:49.223Z,18.7
2022-10-17T15:57:51.532Z,18.5
2022-10-17T16:07:53.958Z,18.4
2022-10-17T16:17:56.022Z,18.3
2022-10-17T16:27:57.698Z,18.1
2022-10-17T16:37:59.987Z,17.9
2022-10-17T16:48:02.294Z,17.8
2022-10-17T16:58:04.317Z,17.6
2022-10-17T17:08:07.956Z,17.5
2022-10-17T17:18:09.059Z,17.4
2022-10-17T17:28:11.128Z,17.2
2022-10-17T17:38:12.873Z,17.2
2022-10-17T17:48:14.986Z,17.1
2022-10-17T17:58:17.503Z,17
2022-10-17T18:08:19.908Z,16.9
2022-10-17T18:18:21.658Z,16.9
2022-10-17T18:28:23.521Z,16.8
2022-10-17T18:38:25.479Z,16.7
2022-10-17T18:48:27.442Z,16.7
2022-10-17T19:08:31.700Z,16.5
2022-10-17T19:18:33.959Z,16.5
2022-10-17T19:28:36.012Z,16.4
2022-10-17T19:38:37.675Z,16.3
2022-10-17T19:48:39.952Z,16.3
2022-10-17T20:08:44.246Z,16.2
2022-10-17T20:18:46.910Z,16.2
2022-10-17T20:28:49.053Z,16.1
2022-10-17T20:38:51.187Z,16
2022-10-17T20:48:53.595Z,16
2022-10-17T20:58:56.177Z,16
2022-10-17T21:08:58.347Z,15.9
2022-10-17T21:19:00.444Z,15.9
2022-10-17T21:29:02.473Z,15.9
2022-10-17T21:39:05.031Z,15.7
2022-10-17T21:49:06.696Z,15.6
2022-10-17T21:59:08.944Z,15.5
2022-10-17T22:09:10.684Z,15.5
2022-10-17T22:19:12.736Z,15.4
2022-10-17T22:29:15.330Z,15.4
2022-10-17T22:39:17.986Z,15.3
2022-10-17T22:49:20.002Z,15.2
2022-10-17T23:09:25.158Z,15.2
2022-10-17T23:19:27.604Z,15.1
2022-10-17T23:29:30.226Z,15.1
2022-10-17T23:39:31.920Z,15.1
2022-10-17T23:49:34.039Z,15.1
2022-10-17T23:59:36.130Z,15.1
